createdAt,value
2023-02-04T00:03:34.597Z,8.71
2023-02-04T00:08:34.577Z,8.76
2023-02-04T00:13:34.518Z,8.63
2023-02-04T00:18:34.436Z,8.70
2023-02-04T00:23:34.377Z,8.58
2023-02-04T00:28:34.315Z,8.52
2023-02-04T00:33:34.303Z,8.55
2023-02-04T00:38:34.213Z,8.56
2023-02-04T00:43:34.180Z,8.66
2023-02-04T00:48:34.079Z,8.61
2023-02-04T00:53:34.065Z,8.71
2023-02-04T00:58:34.021Z,8.53
2023-02-04T01:03:33.959Z,8.61
2023-02-04T01:08:33.889Z,8.65
2023-02-04T01:13:33.855Z,8.66
2023-02-04T01:18:33.802Z,8.59
2023-02-04T01:23:33.762Z,8.61
2023-02-04T01:28:33.667Z,8.63
2023-02-04T01:33:33.636Z,8.62
2023-02-04T01:38:33.580Z,8.61
2023-02-04T01:43:33.532Z,8.53
2023-02-04T01:48:33.444Z,8.41
2023-02-04T01:53:33.421Z,8.63
2023-02-04T01:58:33.328Z,8.65
2023-02-04T02:03:33.317Z,8.62
2023-02-04T02:08:33.243Z,8.58
2023-02-04T02:13:33.163Z,8.55
2023-02-04T02:18:33.109Z,8.59
2023-02-04T02:23:33.080Z,8.61
2023-02-04T02:28:33.040Z,8.65
2023-02-04T02:33:32.958Z,8.59
2023-02-04T02:38:32.905Z,8.59
2023-02-04T02:43:32.837Z,8.55
2023-02-04T02:48:32.765Z,8.63
2023-02-04T02:53:32.727Z,8.55
2023-02-04T02:58:32.708Z,8.36
2023-02-04T03:03:32.594Z,8.61
2023-02-04T03:08:32.573Z,8.61
2023-02-04T03:13:32.494Z,8.62
2023-02-04T03:18:32.446Z,8.63
2023-02-04T03:23:32.424Z,8.48
2023-02-04T03:28:32.346Z,8.44
2023-02-04T03:33:32.279Z,8.45
2023-02-04T03:38:32.217Z,8.38
2023-02-04T03:43:34.006Z,8.40
2023-02-04T03:48:32.133Z,8.50
2023-02-04T03:53:32.056Z,8.55
2023-02-04T03:58:32.041Z,8.41
2023-02-04T04:03:31.950Z,8.45
2023-02-04T04:08:31.885Z,8.45
2023-02-04T04:13:31.870Z,8.47
2023-02-04T04:18:31.784Z,8.44
2023-02-04T04:23:31.740Z,8.12
2023-02-04T04:28:31.742Z,8.38
2023-02-04T04:33:31.654Z,8.23
2023-02-04T04:38:31.592Z,8.26
2023-02-04T04:43:31.493Z,8.29
2023-02-04T04:48:31.457Z,8.34
2023-02-04T04:53:31.409Z,8.37
2023-02-04T04:58:31.339Z,8.41
2023-02-04T05:03:31.283Z,8.36
2023-02-04T05:08:31.234Z,8.26
2023-02-04T05:13:31.201Z,8.18
2023-02-04T05:18:31.159Z,8.37
2023-02-04T05:23:39.916Z,8.40
2023-02-04T05:28:31.024Z,8.28
2023-02-04T05:33:30.948Z,8.29
2023-02-04T05:38:30.906Z,8.22
2023-02-04T05:43:30.844Z,8.22
2023-02-04T05:48:30.790Z,8.25
2023-02-04T05:53:30.725Z,8.20
2023-02-04T05:58:30.675Z,8.22
2023-02-04T06:03:30.816Z,8.15
2023-02-04T06:08:30.593Z,8.25
2023-02-04T06:13:30.546Z,8.26
2023-02-04T06:18:30.458Z,8.34
2023-02-04T06:23:30.395Z,8.30
2023-02-04T06:28:30.360Z,8.30
2023-02-04T06:33:30.286Z,8.34
2023-02-04T06:38:30.272Z,8.29
2023-02-04T06:43:30.184Z,8.16
2023-02-04T06:48:31.301Z,8.28
2023-02-04T06:53:30.073Z,8.20
2023-02-04T06:58:30.045Z,8.33
2023-02-04T07:03:29.957Z,8.37
2023-02-04T07:08:29.946Z,8.33
2023-02-04T07:13:29.906Z,8.33
2023-02-04T07:18:29.875Z,8.23
2023-02-04T07:23:29.738Z,8.11
2023-02-04T07:28:29.707Z,8.33
2023-02-04T07:33:29.618Z,8.38
2023-02-04T07:38:29.625Z,8.38
2023-02-04T07:43:29.549Z,8.40
2023-02-04T07:48:29.465Z,8.50
2023-02-04T07:53:29.423Z,8.52
2023-02-04T07:58:29.361Z,8.61
2023-02-04T08:03:29.407Z,8.61
2023-02-04T08:08:29.239Z,8.65
2023-02-04T08:13:29.221Z,8.74
2023-02-04T08:18:29.200Z,8.76
2023-02-04T08:23:29.085Z,8.83
2023-02-04T08:28:29.045Z,8.84
2023-02-04T08:33:28.957Z,8.94
2023-02-04T08:38:28.887Z,8.92
2023-02-04T08:43:28.954Z,8.99
2023-02-04T08:48:28.921Z,8.99
2023-02-04T08:53:28.757Z,9.10
2023-02-04T08:58:28.729Z,9.02
2023-02-04T09:03:28.668Z,9.23
2023-02-04T09:08:28.621Z,9.38
2023-02-04T09:13:28.584Z,9.40
2023-02-04T09:18:28.528Z,9.43
2023-02-04T09:23:28.456Z,9.39
2023-02-04T09:28:28.369Z,9.57
2023-02-04T09:33:28.388Z,9.66
2023-02-04T09:38:28.298Z,9.75
2023-02-04T09:43:28.228Z,9.69
2023-02-04T09:48:28.166Z,9.99
2023-02-04T09:53:28.127Z,10.26
2023-02-04T09:58:28.107Z,10.17
2023-02-04T10:03:28.037Z,10.33
2023-02-04T10:08:27.915Z,10.45
2023-02-04T10:13:27.858Z,10.61
2023-02-04T10:18:27.806Z,10.47
2023-02-04T10:23:27.761Z,10.53
2023-02-04T10:28:27.722Z,10.67
2023-02-04T10:33:27.648Z,10.61
2023-02-04T10:38:27.611Z,10.56
2023-02-04T10:43:27.557Z,10.76
2023-02-04T10:48:27.499Z,10.64
2023-02-04T10:53:27.468Z,10.82
2023-02-04T10:58:27.479Z,10.97
2023-02-04T11:03:27.383Z,11.06
2023-02-04T11:08:27.294Z,10.73
2023-02-04T11:13:27.221Z,11.04
2023-02-04T11:18:27.186Z,10.76
2023-02-04T11:23:35.954Z,10.71
2023-02-04T11:28:27.046Z,10.63
2023-02-04T11:33:26.987Z,10.68
2023-02-04T11:38:27.025Z,10.74
2023-02-04T11:43:26.910Z,10.82
2023-02-04T11:48:26.824Z,11.06
2023-02-04T11:53:26.802Z,11.25
2023-02-04T11:58:26.720Z,11.52
2023-02-04T12:03:26.735Z,11.55
2023-02-04T12:08:26.611Z,11.62
2023-02-04T12:13:26.685Z,11.46
2023-02-04T12:18:26.459Z,11.52
2023-02-04T12:23:26.487Z,11.62
2023-02-04T12:28:26.370Z,11.47
2023-02-04T12:33:26.330Z,11.61
2023-02-04T12:38:26.245Z,11.47
2023-02-04T12:43:28.272Z,11.60
2023-02-04T12:48:26.303Z,11.47
2023-02-04T12:53:26.066Z,11.43
2023-02-04T12:58:26.071Z,11.54
2023-02-04T13:03:25.990Z,11.49
2023-02-04T13:08:25.982Z,11.49
2023-02-04T13:13:25.965Z,11.54
2023-02-04T13:18:25.789Z,11.37
2023-02-04T13:23:25.827Z,11.29
2023-02-04T13:28:25.782Z,11.37
2023-02-04T13:33:25.605Z,11.37
2023-02-04T13:38:26.418Z,11.33
2023-02-04T13:43:25.563Z,11.28
2023-02-04T13:48:25.504Z,11.24
2023-02-04T13:53:25.470Z,11.17
2023-02-04T13:58:25.555Z,11.06
2023-02-04T14:03:25.322Z,11.18
2023-02-04T14:08:25.305Z,11.07
2023-02-04T14:13:25.178Z,10.96
2023-02-04T14:18:25.139Z,10.82
2023-02-04T14:23:25.213Z,10.85
2023-02-04T14:28:25.068Z,10.79
2023-02-04T14:33:25.002Z,10.74
2023-02-04T14:38:33.811Z,10.73
2023-02-04T14:43:24.841Z,10.52
2023-02-04T14:48:24.827Z,10.41
2023-02-04T14:53:24.763Z,10.20
2023-02-04T14:58:26.923Z,10.22
2023-02-04T15:03:24.754Z,10.17
2023-02-04T15:08:24.612Z,10.20
2023-02-04T15:13:24.580Z,10.25
2023-02-04T15:18:24.518Z,10.29
2023-02-04T15:23:24.404Z,10.22
2023-02-04T15:28:24.424Z,10.32
2023-02-04T15:33:24.321Z,10.17
2023-02-04T15:38:24.229Z,10.11
2023-02-04T15:43:24.213Z,9.97
2023-02-04T15:48:24.156Z,9.75
2023-02-04T15:53:24.152Z,9.56
2023-02-04T15:58:24.056Z,9.46
2023-02-04T16:03:23.985Z,9.32
2023-02-04T16:08:23.959Z,9.14
2023-02-04T16:13:23.869Z,9.02
2023-02-04T16:18:23.841Z,8.95
2023-02-04T16:23:23.770Z,8.83
2023-02-04T16:28:23.721Z,8.66
2023-02-04T16:33:23.886Z,8.55
2023-02-04T16:38:23.683Z,8.44
2023-02-04T16:43:23.610Z,8.23
2023-02-04T16:48:23.533Z,8.16
2023-02-04T16:53:23.419Z,8.18
2023-02-04T16:58:23.369Z,8.11
2023-02-04T17:03:23.310Z,8.04
2023-02-04T17:08:23.296Z,7.93
2023-02-04T17:13:23.203Z,7.90
2023-02-04T17:18:23.203Z,7.93
2023-02-04T17:23:23.127Z,7.92
2023-02-04T17:28:31.936Z,8.01
2023-02-04T17:33:22.955Z,7.71
2023-02-04T17:38:23.713Z,7.60
2023-02-04T17:43:22.890Z,7.43
2023-02-04T17:48:22.836Z,7.34
2023-02-04T17:53:22.798Z,7.30
2023-02-04T17:58:22.724Z,7.31
2023-02-04T18:03:22.691Z,7.30
2023-02-04T18:08:22.635Z,7.34
2023-02-04T18:13:22.553Z,7.32
2023-02-04T18:18:22.502Z,7.34
2023-02-04T18:23:22.443Z,7.31
2023-02-04T18:28:22.474Z,7.35
2023-02-04T18:33:22.328Z,7.35
2023-02-04T18:38:22.308Z,7.34
2023-02-04T18:43:22.241Z,7.32
2023-02-04T18:48:22.195Z,7.31
2023-02-04T18:53:22.145Z,7.27
2023-02-04T18:58:22.035Z,7.24
2023-02-04T19:03:22.005Z,7.23
2023-02-04T19:08:21.967Z,7.21
2023-02-04T19:13:21.944Z,7.21
2023-02-04T19:18:21.818Z,7.24
2023-02-04T19:23:21.765Z,7.25
2023-02-04T19:28:24.089Z,7.24
2023-02-04T19:33:21.660Z,7.15
2023-02-04T19:38:21.625Z,7.07
2023-02-04T19:43:21.580Z,7.03
2023-02-04T19:48:21.514Z,7.05
2023-02-04T19:53:21.483Z,7.03
2023-02-04T19:58:21.524Z,7.03
2023-02-04T20:03:21.458Z,7.12
2023-02-04T20:08:21.306Z,7.15
2023-02-04T20:13:21.229Z,7.15
2023-02-04T20:18:21.214Z,7.15
2023-02-04T20:23:21.131Z,7.20
2023-02-04T20:28:21.051Z,7.20
2023-02-04T20:33:21.030Z,7.17
2023-02-04T20:38:20.945Z,7.12
2023-02-04T20:43:20.915Z,7.15
2023-02-04T20:48:20.863Z,7.09
2023-02-04T20:53:20.808Z,7.02
2023-02-04T20:58:20.757Z,6.81
2023-02-04T21:03:20.709Z,6.71
2023-02-04T21:08:20.652Z,6.69
2023-02-04T21:13:20.566Z,6.71
2023-02-04T21:18:20.504Z,6.76
2023-02-04T21:23:20.495Z,6.76
2023-02-04T21:28:20.419Z,6.79
2023-02-04T21:33:20.335Z,6.79
2023-02-04T21:38:20.311Z,6.79
2023-02-04T21:43:20.253Z,6.77
2023-02-04T21:48:20.204Z,6.80
2023-02-04T21:53:20.129Z,6.79
2023-02-04T21:58:20.064Z,6.74
2023-02-04T22:03:20.046Z,6.71
2023-02-04T22:08:19.963Z,6.74
2023-02-04T22:13:19.917Z,6.79
2023-02-04T22:18:19.834Z,6.70
2023-02-04T22:23:19.783Z,6.89
2023-02-04T22:28:19.823Z,6.92
2023-02-04T22:33:19.700Z,6.94
2023-02-04T22:38:19.641Z,6.94
2023-02-04T22:43:19.605Z,6.91
2023-02-04T22:48:19.532Z,6.95
2023-02-04T22:53:19.478Z,7.02
2023-02-04T22:58:19.452Z,7.02
2023-02-04T23:03:19.354Z,7.09
2023-02-04T23:08:19.311Z,7.12
2023-02-04T23:13:19.273Z,7.03
2023-02-04T23:18:19.170Z,7.07
2023-02-04T23:23:19.153Z,7.13
2023-02-04T23:28:28.968Z,7.40
2023-02-04T23:33:19.000Z,7.28
2023-02-04T23:38:18.997Z,7.23
2023-02-04T23:43:19.001Z,7.23
2023-02-04T23:48:18.903Z,7.25
2023-02-04T23:53:18.864Z,7.23
2023-02-04T23:58:18.734Z,7.25
